createdAt,value
2022-12-31T00:01:46.388Z,33.42
2022-12-31T00:04:13.172Z,31.52
2022-12-31T00:06:39.820Z,32.95
2022-12-31T00:09:09.870Z,30.85
2022-12-31T00:11:37.673Z,31.88
2022-12-31T00:14:04.756Z,30.70
2022-12-31T00:16:36.474Z,32.22
2022-12-31T00:19:05.129Z,32.72
2022-12-31T00:21:33.505Z,31.55
2022-12-31T00:24:00.992Z,30.55
2022-12-31T00:26:29.926Z,31.70
2022-12-31T00:28:58.447Z,29.45
2022-12-31T00:31:28.184Z,38.10
2022-12-31T00:33:55.708Z,47.10
2022-12-31T00:36:26.092Z,47.65
2022-12-31T00:38:54.654Z,48.17
2022-12-31T00:41:22.549Z,49.33
2022-12-31T00:43:49.602Z,50.47
2022-12-31T00:46:16.994Z,48.92
2022-12-31T00:48:43.660Z,48.22
2022-12-31T00:51:12.625Z,51.33
2022-12-31T00:53:39.877Z,51.22
2022-12-31T00:56:18.466Z,51.00
2022-12-31T00:58:45.359Z,46.05
2022-12-31T01:01:20.045Z,47.35
2022-12-31T01:03:48.240Z,43.45
2022-12-31T01:06:15.015Z,37.78
2022-12-31T01:08:41.687Z,39.33
2022-12-31T01:11:19.256Z,43.13
2022-12-31T01:13:52.387Z,38.63
2022-12-31T01:16:23.706Z,40.78
2022-12-31T01:18:50.497Z,43.95
2022-12-31T01:21:18.253Z,40.33
2022-12-31T01:23:45.053Z,42.03
2022-12-31T01:26:14.268Z,41.05
2022-12-31T01:28:41.261Z,41.58
2022-12-31T01:31:10.325Z,35.88
2022-12-31T01:33:37.583Z,37.75
2022-12-31T01:36:13.500Z,37.72
2022-12-31T01:38:41.158Z,38.78
2022-12-31T01:41:12.085Z,39.13
2022-12-31T01:43:54.483Z,43.22
2022-12-31T01:46:40.532Z,51.05
2022-12-31T01:49:17.649Z,50.65
2022-12-31T01:51:48.854Z,51.58
2022-12-31T01:54:18.348Z,49.85
2022-12-31T01:56:47.569Z,50.35
2022-12-31T01:59:17.047Z,41.67
2022-12-31T02:01:44.665Z,45.65
2022-12-31T02:04:13.835Z,42.00
2022-12-31T02:07:02.242Z,43.33
2022-12-31T02:09:29.835Z,43.00
2022-12-31T02:11:56.490Z,48.53
2022-12-31T02:14:26.979Z,46.22
2022-12-31T02:17:09.223Z,39.53
2022-12-31T02:19:57.574Z,45.67
2022-12-31T02:22:54.826Z,47.85
2022-12-31T02:25:43.100Z,39.38
2022-12-31T02:28:31.463Z,43.47
2022-12-31T02:31:11.369Z,39.35
2022-12-31T02:33:52.952Z,39.28
2022-12-31T02:36:25.627Z,35.28
2022-12-31T02:38:52.810Z,25.85
2022-12-31T02:41:39.744Z,31.17
2022-12-31T02:44:29.004Z,31.98
2022-12-31T02:47:13.749Z,30.75
2022-12-31T02:50:13.409Z,33.35
2022-12-31T02:52:52.146Z,31.02
2022-12-31T02:55:35.269Z,32.30
2022-12-31T02:58:01.777Z,35.53
2022-12-31T03:00:51.252Z,37.00
2022-12-31T03:03:20.335Z,34.25
2022-12-31T03:05:49.553Z,32.45
2022-12-31T03:08:23.931Z,29.05
2022-12-31T03:10:51.234Z,32.72
2022-12-31T03:13:20.235Z,30.98
2022-12-31T03:15:46.800Z,30.25
2022-12-31T03:18:18.244Z,32.63
2022-12-31T03:21:06.799Z,44.05
2022-12-31T03:23:35.595Z,41.30
2022-12-31T03:26:09.858Z,44.22
2022-12-31T03:28:41.560Z,61.53
2022-12-31T03:31:08.621Z,60.17
2022-12-31T03:33:38.107Z,55.85
2022-12-31T03:36:08.716Z,51.40
2022-12-31T03:38:35.801Z,49.17
2022-12-31T03:41:02.736Z,50.47
2022-12-31T03:43:29.410Z,41.97
2022-12-31T03:45:58.641Z,21.38
2022-12-31T03:48:26.686Z,37.58
2022-12-31T03:50:53.283Z,39.25
2022-12-31T03:53:19.900Z,34.67
2022-12-31T03:55:52.059Z,40.90
2022-12-31T03:58:18.767Z,35.83
2022-12-31T04:00:45.431Z,35.67
2022-12-31T04:03:12.141Z,34.33
2022-12-31T04:05:38.745Z,33.78
2022-12-31T04:08:05.400Z,33.40
2022-12-31T04:10:31.952Z,46.20
2022-12-31T04:13:00.556Z,44.13
2022-12-31T04:15:27.100Z,49.42
2022-12-31T04:17:53.719Z,53.35
2022-12-31T04:20:20.313Z,48.50
2022-12-31T04:22:46.950Z,43.90
2022-12-31T04:25:13.682Z,41.92
2022-12-31T04:27:41.471Z,41.50
2022-12-31T04:30:09.175Z,40.03
2022-12-31T04:32:35.816Z,41.30
2022-12-31T04:35:02.485Z,54.58
2022-12-31T04:37:29.096Z,60.45
2022-12-31T04:40:00.315Z,50.85
2022-12-31T04:42:30.310Z,54.33
2022-12-31T04:44:57.025Z,50.35
2022-12-31T04:47:24.079Z,48.28
2022-12-31T04:49:50.856Z,43.25
2022-12-31T04:52:17.406Z,42.45
2022-12-31T04:54:44.025Z,42.47
2022-12-31T04:57:10.671Z,54.10
2022-12-31T04:59:37.240Z,48.78
2022-12-31T05:02:04.011Z,52.60
2022-12-31T05:04:30.853Z,55.47
2022-12-31T05:06:57.548Z,51.33
2022-12-31T05:09:27.515Z,48.75
2022-12-31T05:11:54.228Z,39.53
2022-12-31T05:14:20.989Z,45.97
2022-12-31T05:16:47.828Z,48.70
2022-12-31T05:19:14.605Z,43.50
2022-12-31T05:21:41.299Z,41.03
2022-12-31T05:24:08.410Z,42.90
2022-12-31T05:26:35.380Z,52.65
2022-12-31T05:29:02.029Z,54.47
2022-12-31T05:31:28.754Z,52.38
2022-12-31T05:33:55.446Z,41.83
2022-12-31T05:36:22.093Z,50.40
2022-12-31T05:38:48.809Z,46.50
2022-12-31T05:41:15.397Z,47.40
2022-12-31T05:43:42.072Z,45.83
2022-12-31T05:46:08.981Z,42.25
2022-12-31T05:48:35.715Z,38.78
2022-12-31T05:51:02.448Z,44.95
2022-12-31T05:53:29.141Z,45.88
2022-12-31T05:55:55.730Z,48.90
2022-12-31T05:58:22.294Z,45.90
2022-12-31T06:00:48.952Z,44.97
2022-12-31T06:03:15.669Z,43.67
2022-12-31T06:05:43.371Z,42.08
2022-12-31T06:08:12.177Z,44.53
2022-12-31T06:10:39.933Z,42.13
2022-12-31T06:13:07.355Z,31.70
2022-12-31T06:15:37.545Z,32.65
2022-12-31T06:18:04.434Z,18.25
2022-12-31T06:20:31.161Z,27.70
2022-12-31T06:22:57.868Z,33.42
2022-12-31T06:25:24.513Z,23.27
2022-12-31T06:27:51.095Z,29.13
2022-12-31T06:30:17.815Z,29.85
2022-12-31T06:32:44.403Z,31.98
2022-12-31T06:35:11.261Z,35.65
2022-12-31T06:37:37.943Z,34.78
2022-12-31T06:40:05.178Z,29.30
2022-12-31T06:42:31.956Z,34.10
2022-12-31T06:44:59.298Z,41.70
2022-12-31T06:47:26.177Z,38.17
2022-12-31T06:49:53.260Z,34.22
2022-12-31T06:52:20.224Z,42.90
2022-12-31T06:54:47.125Z,39.35
2022-12-31T06:57:14.388Z,39.72
2022-12-31T06:59:41.469Z,35.85
2022-12-31T07:02:29.902Z,32.85
2022-12-31T07:05:11.838Z,30.38
2022-12-31T07:08:01.622Z,30.17
2022-12-31T07:10:47.108Z,30.77
2022-12-31T07:13:46.091Z,36.35
2022-12-31T07:16:30.794Z,30.40
2022-12-31T07:21:43.906Z,31.17
2022-12-31T07:24:11.899Z,34.58
2022-12-31T07:27:03.253Z,35.65
2022-12-31T07:29:29.803Z,31.92
2022-12-31T07:31:56.491Z,30.08
2022-12-31T07:34:30.651Z,32.92
2022-12-31T07:37:01.589Z,26.13
2022-12-31T07:39:37.078Z,29.20
2022-12-31T07:42:09.767Z,32.13
2022-12-31T07:44:45.148Z,30.48
2022-12-31T07:47:27.252Z,28.75
2022-12-31T07:49:55.159Z,24.65
2022-12-31T07:52:22.366Z,31.25
2022-12-31T07:54:49.253Z,27.27
2022-12-31T07:57:18.137Z,27.50
2022-12-31T07:59:50.423Z,27.00
2022-12-31T08:02:44.738Z,38.38
2022-12-31T08:05:29.898Z,29.97
2022-12-31T08:08:05.781Z,28.15
2022-12-31T08:10:43.746Z,34.85
2022-12-31T08:13:12.314Z,31.17
2022-12-31T08:15:40.190Z,35.20
2022-12-31T08:18:08.094Z,36.00
2022-12-31T08:20:58.463Z,41.70
2022-12-31T08:23:32.672Z,22.65
2022-12-31T08:26:17.275Z,31.70
2022-12-31T08:29:16.997Z,32.83
2022-12-31T08:31:58.329Z,37.30
2022-12-31T08:34:34.179Z,41.08
2022-12-31T08:37:32.933Z,36.00
2022-12-31T08:40:08.227Z,36.22
2022-12-31T08:43:01.198Z,23.70
2022-12-31T08:45:41.358Z,29.55
2022-12-31T08:48:35.559Z,35.80
2022-12-31T08:51:02.493Z,36.25
2022-12-31T08:53:29.435Z,41.97
2022-12-31T08:56:03.658Z,38.03
2022-12-31T08:58:45.433Z,40.25
2022-12-31T09:01:14.980Z,35.40
2022-12-31T09:03:47.095Z,39.65
2022-12-31T09:06:36.184Z,36.55
2022-12-31T09:09:28.186Z,40.22
2022-12-31T09:11:59.053Z,37.97
2022-12-31T09:14:34.309Z,31.23
2022-12-31T09:17:10.267Z,35.72
2022-12-31T09:19:36.942Z,33.78
2022-12-31T09:22:04.115Z,26.88
2022-12-31T09:24:31.087Z,36.00
2022-12-31T09:27:09.616Z,29.80
2022-12-31T09:29:42.159Z,27.60
2022-12-31T09:32:08.886Z,30.65
2022-12-31T09:34:35.490Z,34.05
2022-12-31T09:37:18.006Z,30.40
2022-12-31T09:39:47.270Z,33.38
2022-12-31T09:42:35.766Z,32.88
2022-12-31T09:45:30.942Z,35.78
2022-12-31T09:48:07.034Z,33.40
2022-12-31T09:51:11.233Z,33.17
2022-12-31T09:54:08.665Z,34.72
2022-12-31T09:56:36.926Z,32.28
2022-12-31T09:59:12.892Z,33.35
2022-12-31T10:02:19.608Z,30.33
2022-12-31T10:05:20.796Z,30.75
2022-12-31T10:08:06.188Z,30.55
2022-12-31T10:10:50.933Z,32.25
2022-12-31T10:13:29.805Z,36.83
2022-12-31T10:16:22.002Z,38.58
2022-12-31T10:19:14.119Z,37.55
2022-12-31T10:22:14.433Z,31.38
2022-12-31T10:25:05.097Z,36.38
2022-12-31T10:27:43.942Z,34.28
2022-12-31T10:30:18.760Z,34.45
2022-12-31T10:33:00.664Z,31.75
2022-12-31T10:35:40.099Z,35.28
2022-12-31T10:38:57.995Z,29.45
2022-12-31T10:41:33.404Z,27.92
2022-12-31T10:44:33.153Z,25.95
2022-12-31T10:47:24.781Z,30.50
2022-12-31T10:49:57.535Z,30.02
2022-12-31T10:53:13.135Z,31.20
2022-12-31T10:55:58.630Z,30.30
2022-12-31T10:58:31.198Z,29.52
2022-12-31T11:01:19.193Z,32.25
2022-12-31T11:04:03.931Z,35.63
2022-12-31T11:06:52.402Z,32.15
2022-12-31T11:09:49.970Z,32.03
2022-12-31T11:13:01.233Z,30.83
2022-12-31T11:15:52.363Z,30.42
2022-12-31T11:18:37.367Z,32.33
2022-12-31T11:21:28.288Z,32.45
2022-12-31T11:24:26.590Z,31.15
2022-12-31T11:27:07.579Z,30.48
2022-12-31T11:29:40.317Z,31.58
2022-12-31T11:32:36.389Z,30.63
2022-12-31T11:35:20.777Z,29.55
2022-12-31T11:37:50.601Z,31.95
2022-12-31T11:40:42.041Z,29.77
2022-12-31T11:43:22.765Z,27.85
2022-12-31T11:46:15.706Z,31.65
2022-12-31T11:49:04.329Z,27.42
2022-12-31T11:51:50.025Z,27.13
2022-12-31T11:54:40.285Z,26.17
2022-12-31T11:57:19.143Z,25.98
2022-12-31T11:59:46.804Z,32.92
2022-12-31T12:02:37.605Z,32.03
2022-12-31T12:05:11.104Z,30.30
2022-12-31T12:07:38.372Z,29.58
2022-12-31T12:10:36.727Z,32.17
2022-12-31T12:13:20.420Z,31.98
2022-12-31T12:15:51.043Z,33.72
2022-12-31T12:18:43.755Z,30.63
2022-12-31T12:21:24.186Z,33.53
2022-12-31T12:24:06.340Z,34.15
2022-12-31T12:26:39.299Z,33.97
2022-12-31T12:29:16.972Z,36.53
2022-12-31T12:32:12.528Z,35.28
2022-12-31T12:34:44.534Z,32.83
2022-12-31T12:37:27.134Z,40.47
2022-12-31T12:40:02.502Z,35.20
2022-12-31T12:42:30.250Z,35.10
2022-12-31T12:45:23.122Z,33.90
2022-12-31T12:47:56.450Z,34.63
2022-12-31T12:50:26.776Z,34.03
2022-12-31T12:53:37.679Z,32.08
2022-12-31T12:56:07.107Z,30.45
2022-12-31T12:58:49.876Z,28.92
2022-12-31T13:01:44.639Z,29.58
2022-12-31T13:04:36.175Z,32.05
2022-12-31T13:07:26.378Z,40.17
2022-12-31T13:10:08.047Z,42.28
2022-12-31T13:16:21.357Z,39.85
2022-12-31T13:19:09.304Z,36.42
2022-12-31T13:21:47.238Z,36.30
2022-12-31T13:24:47.079Z,36.70
2022-12-31T13:27:45.967Z,34.88
2022-12-31T13:30:19.746Z,34.90
2022-12-31T13:33:09.587Z,33.85
2022-12-31T13:35:57.772Z,42.85
2022-12-31T13:38:32.807Z,40.80
2022-12-31T13:41:21.275Z,39.60
2022-12-31T13:44:32.606Z,40.92
2022-12-31T13:47:48.494Z,36.00
2022-12-31T13:50:19.422Z,33.70
2022-12-31T13:52:57.969Z,39.47
2022-12-31T13:55:33.929Z,31.17
2022-12-31T13:58:15.648Z,29.20
2022-12-31T14:00:52.906Z,29.10
2022-12-31T14:03:25.854Z,27.42
2022-12-31T14:05:58.595Z,23.45
2022-12-31T14:08:25.256Z,22.33
2022-12-31T14:11:07.622Z,24.10
2022-12-31T14:13:35.043Z,20.95
2022-12-31T14:16:10.642Z,21.05
2022-12-31T14:18:54.124Z,26.10
2022-12-31T14:21:33.241Z,23.13
2022-12-31T14:24:12.932Z,28.30
2022-12-31T14:27:03.908Z,31.10
2022-12-31T14:30:03.876Z,25.73
2022-12-31T14:33:08.797Z,21.52
2022-12-31T14:35:55.811Z,25.73
2022-12-31T14:38:50.676Z,24.23
2022-12-31T14:41:44.974Z,25.50
2022-12-31T14:44:42.280Z,21.58
2022-12-31T14:47:27.633Z,15.48
2022-12-31T14:50:11.073Z,19.50
2022-12-31T14:52:53.168Z,20.50
2022-12-31T14:55:24.637Z,23.75
2022-12-31T14:58:26.379Z,21.90
2022-12-31T15:00:50.821Z,20.95
2022-12-31T15:03:17.630Z,22.10
2022-12-31T15:05:54.472Z,15.07
2022-12-31T15:08:39.560Z,17.85
2022-12-31T15:11:25.488Z,20.00
2022-12-31T15:14:38.916Z,23.58
2022-12-31T15:17:42.466Z,18.33
2022-12-31T15:20:17.196Z,23.08
2022-12-31T15:22:44.392Z,27.90
2022-12-31T15:25:47.761Z,18.45
2022-12-31T15:28:40.874Z,22.15
2022-12-31T15:31:18.501Z,25.38
2022-12-31T15:34:00.948Z,28.20
2022-12-31T15:36:41.879Z,33.60
2022-12-31T15:39:11.189Z,29.27
2022-12-31T15:42:10.339Z,35.83
2022-12-31T15:44:33.130Z,46.47
2022-12-31T15:47:15.928Z,46.20
2022-12-31T15:49:47.860Z,47.63
2022-12-31T15:52:36.568Z,52.97
2022-12-31T15:55:05.670Z,55.20
2022-12-31T15:57:40.336Z,53.13
2022-12-31T16:00:19.675Z,53.50
2022-12-31T16:02:48.584Z,55.80
2022-12-31T16:05:28.070Z,42.55
2022-12-31T16:07:56.927Z,43.38
2022-12-31T16:10:35.406Z,67.72
2022-12-31T16:13:02.132Z,66.60
2022-12-31T16:15:31.639Z,69.88
2022-12-31T16:18:23.160Z,67.20
2022-12-31T16:20:51.842Z,59.00
2022-12-31T16:23:27.598Z,43.83
2022-12-31T16:26:00.649Z,78.70
2022-12-31T16:28:32.519Z,71.13
2022-12-31T16:31:03.060Z,58.95
2022-12-31T16:33:31.198Z,88.97
2022-12-31T16:36:00.065Z,66.75
2022-12-31T16:38:35.381Z,56.10
2022-12-31T16:41:01.903Z,43.78
2022-12-31T16:43:30.928Z,42.78
2022-12-31T16:46:11.834Z,45.75
2022-12-31T16:48:38.913Z,54.15
2022-12-31T16:51:06.217Z,70.82
2022-12-31T16:53:37.202Z,70.78
2022-12-31T16:56:10.787Z,75.88
2022-12-31T16:58:41.693Z,83.77
2022-12-31T17:01:26.093Z,96.63
2022-12-31T17:03:58.392Z,79.90
2022-12-31T17:06:27.208Z,82.05
2022-12-31T17:08:57.948Z,65.43
2022-12-31T17:11:30.468Z,61.45
2022-12-31T17:14:06.746Z,63.75
2022-12-31T17:17:06.384Z,59.90
2022-12-31T17:19:35.997Z,77.75
2022-12-31T17:22:09.798Z,71.80
2022-12-31T17:24:38.035Z,72.72
2022-12-31T17:27:08.881Z,80.00
2022-12-31T17:29:36.146Z,84.00
2022-12-31T17:32:02.720Z,77.55
2022-12-31T17:34:49.122Z,76.13
2022-12-31T17:37:23.246Z,59.58
2022-12-31T17:40:48.652Z,55.63
2022-12-31T17:42:50.320Z,66.43
2022-12-31T17:45:22.111Z,73.93
2022-12-31T17:47:52.545Z,86.25
2022-12-31T17:50:26.094Z,75.10
2022-12-31T17:52:56.503Z,73.60
2022-12-31T17:55:23.486Z,81.88
2022-12-31T17:57:53.567Z,82.18
2022-12-31T18:00:23.527Z,83.70
2022-12-31T18:02:52.650Z,83.30
2022-12-31T18:05:21.633Z,83.70
2022-12-31T18:07:48.322Z,69.75
2022-12-31T18:10:17.415Z,67.10
2022-12-31T18:12:45.096Z,67.50
2022-12-31T18:15:17.410Z,63.85
2022-12-31T18:17:44.600Z,58.50
2022-12-31T18:20:12.276Z,64.65
2022-12-31T18:22:41.252Z,67.78
2022-12-31T18:25:19.215Z,65.25
2022-12-31T18:27:45.926Z,63.00
2022-12-31T18:30:13.283Z,63.55
2022-12-31T18:32:41.552Z,68.78
2022-12-31T18:38:13.250Z,67.68
2022-12-31T18:40:44.203Z,68.90
2022-12-31T18:43:18.921Z,68.10
2022-12-31T18:45:46.774Z,64.72
2022-12-31T18:48:13.507Z,68.88
2022-12-31T18:50:41.396Z,61.55
2022-12-31T18:53:14.901Z,53.00
2022-12-31T18:55:46.138Z,53.63
2022-12-31T18:58:12.765Z,55.00
2022-12-31T19:00:39.585Z,49.28
2022-12-31T19:03:06.339Z,42.63
2022-12-31T19:05:36.611Z,45.15
2022-12-31T19:08:03.423Z,44.85
2022-12-31T19:10:30.076Z,43.33
2022-12-31T19:12:56.698Z,47.60
2022-12-31T19:15:25.971Z,54.83
2022-12-31T19:17:52.881Z,55.88
2022-12-31T19:20:19.554Z,54.88
2022-12-31T19:22:46.265Z,56.63
2022-12-31T19:25:35.833Z,63.17
2022-12-31T19:28:04.269Z,58.25
2022-12-31T19:30:33.452Z,54.08
2022-12-31T19:33:00.553Z,50.80
2022-12-31T19:35:27.949Z,57.80
2022-12-31T19:37:55.525Z,55.63
2022-12-31T19:40:25.117Z,53.13
2022-12-31T19:42:56.331Z,48.22
2022-12-31T19:45:27.522Z,45.83
2022-12-31T19:47:55.953Z,47.67
2022-12-31T19:50:25.601Z,50.28
2022-12-31T19:52:54.760Z,50.92
2022-12-31T19:55:22.910Z,51.00
2022-12-31T19:57:49.674Z,54.83
2022-12-31T20:00:18.193Z,54.78
2022-12-31T20:02:47.452Z,51.65
2022-12-31T20:05:15.828Z,46.05
2022-12-31T20:07:42.724Z,44.20
2022-12-31T20:10:10.888Z,49.88
2022-12-31T20:12:43.919Z,54.08
2022-12-31T20:15:11.214Z,56.40
2022-12-31T20:17:38.020Z,50.60
2022-12-31T20:20:06.832Z,53.33
2022-12-31T20:22:33.685Z,54.03
2022-12-31T20:25:00.415Z,55.97
2022-12-31T20:27:27.063Z,56.33
2022-12-31T20:29:53.693Z,57.50
2022-12-31T20:32:20.312Z,57.53
2022-12-31T20:34:46.936Z,57.97
2022-12-31T20:37:13.722Z,58.63
2022-12-31T20:39:40.353Z,58.55
2022-12-31T20:42:07.059Z,58.25
2022-12-31T20:44:33.873Z,62.55
2022-12-31T20:47:00.531Z,58.80
2022-12-31T20:50:00.837Z,58.70
2022-12-31T20:52:13.766Z,63.83
2022-12-31T20:54:40.373Z,64.65
2022-12-31T20:57:07.027Z,61.17
2022-12-31T20:59:33.639Z,58.55
2022-12-31T21:04:47.156Z,58.70
2022-12-31T21:07:13.828Z,55.03
2022-12-31T21:09:40.443Z,61.38
2022-12-31T21:12:25.631Z,60.45
2022-12-31T21:14:52.275Z,80.80
2022-12-31T21:17:18.850Z,88.53
2022-12-31T21:19:45.681Z,101.20
2022-12-31T21:22:12.459Z,102.18
2022-12-31T21:24:41.570Z,103.45
2022-12-31T21:27:08.161Z,91.65
2022-12-31T21:29:41.876Z,101.57
2022-12-31T21:32:17.135Z,84.50
2022-12-31T21:34:43.701Z,85.63
2022-12-31T21:37:10.340Z,86.97
2022-12-31T21:39:36.938Z,88.50
2022-12-31T21:42:04.032Z,99.20
2022-12-31T21:44:30.803Z,92.30
2022-12-31T21:47:39.717Z,81.88
2022-12-31T21:50:08.209Z,84.35
2022-12-31T21:52:35.284Z,78.05
2022-12-31T21:55:22.867Z,78.65
2022-12-31T22:00:56.109Z,83.18
2022-12-31T22:03:27.800Z,87.90
2022-12-31T22:06:12.555Z,85.40
2022-12-31T22:08:44.151Z,151.65
2022-12-31T22:11:12.459Z,130.10
2022-12-31T22:13:39.888Z,92.93
2022-12-31T22:16:07.611Z,109.40
2022-12-31T22:18:38.844Z,154.02
2022-12-31T22:21:18.408Z,130.77
2022-12-31T22:23:52.112Z,120.65
2022-12-31T22:26:22.021Z,109.53
2022-12-31T22:28:48.690Z,100.35
2022-12-31T22:31:22.743Z,82.07
2022-12-31T22:33:49.482Z,73.85
2022-12-31T22:36:19.815Z,78.57
2022-12-31T22:38:47.286Z,84.55
2022-12-31T22:41:19.561Z,87.18
2022-12-31T22:44:03.791Z,93.43
2022-12-31T22:46:32.645Z,94.25
2022-12-31T22:49:00.475Z,93.10
2022-12-31T22:51:54.985Z,92.63
2022-12-31T22:54:14.821Z,94.35
2022-12-31T22:56:41.619Z,92.45
2022-12-31T22:59:08.593Z,91.88
2022-12-31T23:01:35.362Z,104.70
2022-12-31T23:04:02.059Z,107.53
2022-12-31T23:06:29.170Z,119.30
2022-12-31T23:09:14.505Z,129.15
2022-12-31T23:11:43.126Z,112.25
2022-12-31T23:14:34.312Z,109.50
2022-12-31T23:17:29.675Z,97.18
2022-12-31T23:20:18.377Z,96.07
2022-12-31T23:23:04.895Z,99.68
2022-12-31T23:25:43.716Z,90.95
2022-12-31T23:28:13.571Z,89.05
2022-12-31T23:30:41.641Z,82.88
2022-12-31T23:33:12.419Z,64.05
2022-12-31T23:35:39.014Z,69.97
2022-12-31T23:38:05.634Z,67.15
2022-12-31T23:40:37.086Z,65.10
2022-12-31T23:43:08.118Z,56.80
2022-12-31T23:45:35.115Z,41.25
2022-12-31T23:48:01.952Z,49.42
2022-12-31T23:50:28.958Z,50.10
2022-12-31T23:52:55.644Z,51.72
2022-12-31T23:55:22.232Z,51.50
2022-12-31T23:57:48.904Z,52.33
